TUI47RT LIML-EPKK
Flight info
| Callsign | TUI47RT |
|---|---|
| Flight time | 1h 26m |
| Altitude | 34000 |
| Route | NESTI DCT MALUG/N0462F350 DCT INGID DCT NURMI DCT LEDVA DCT NETIR |
| Aircraft | B738/M-SDE2E3FGHIRWXY/LB1 |
Departure
| Time | 2026-05-01 10:36 |
|---|---|
| Airport | Milano Linate Airport (LIML) |
Arrival
| Time | 2026-05-01 12:03 |
|---|---|
| Airport | Kraków John Paul II International Airport (EPKK) |
| Time | Latitude | Longitude | Altitude | Speed | Heading |
|---|---|---|---|---|---|
| 2026-05-01 10:01 | 45.45858 | 9.27888 | 359 ft | 0 kts | 90° |
| 2026-05-01 10:27 | 45.45858 | 9.27897 | 359 ft | 2 kts | 90° |
| 2026-05-01 10:28 | 45.45857 | 9.27937 | 359 ft | 6 kts | 95° |
| 2026-05-01 10:28 | 45.45760 | 9.27982 | 365 ft | 11 kts | 180° |
| 2026-05-01 10:28 | 45.45676 | 9.27981 | 359 ft | 13 kts | 181° |
| 2026-05-01 10:29 | 45.45459 | 9.27977 | 359 ft | 18 kts | 181° |
| 2026-05-01 10:29 | 45.45338 | 9.27942 | 361 ft | 19 kts | 207° |
| 2026-05-01 10:30 | 45.45080 | 9.27880 | 359 ft | 19 kts | 175° |
| 2026-05-01 10:30 | 45.44832 | 9.27941 | 360 ft | 18 kts | 174° |
| 2026-05-01 10:31 | 45.44574 | 9.27968 | 363 ft | 20 kts | 175° |
| 2026-05-01 10:31 | 45.44269 | 9.28000 | 359 ft | 24 kts | 175° |
| 2026-05-01 10:32 | 45.43908 | 9.28040 | 359 ft | 26 kts | 176° |
| 2026-05-01 10:32 | 45.43731 | 9.28058 | 363 ft | 25 kts | 175° |
| 2026-05-01 10:32 | 45.43519 | 9.28082 | 360 ft | 7 kts | 175° |
| 2026-05-01 10:33 | 45.43447 | 9.28020 | 360 ft | 7 kts | 256° |
| 2026-05-01 10:33 | 45.43444 | 9.27968 | 360 ft | 0 kts | 265° |
| 2026-05-01 10:34 | 45.43444 | 9.27967 | 360 ft | 1 kts | 265° |
| 2026-05-01 10:35 | 45.43442 | 9.27889 | 365 ft | 6 kts | 277° |
| 2026-05-01 10:35 | 45.43461 | 9.27838 | 366 ft | 7 kts | 312° |
| 2026-05-01 10:35 | 45.43515 | 9.27814 | 364 ft | 10 kts | 357° |
| 2026-05-01 10:35 | 45.43676 | 9.27795 | 361 ft | 53 kts | 355° |
| 2026-05-01 10:36 | 45.45308 | 9.27626 | 401 ft | 169 kts | 358° |
| 2026-05-01 10:36 | 45.46490 | 9.27501 | 1035 ft | 174 kts | 4° |
| 2026-05-01 10:36 | 45.47653 | 9.27668 | 1929 ft | 165 kts | 17° |
| 2026-05-01 10:37 | 45.48837 | 9.28041 | 2545 ft | 189 kts | 15° |
| 2026-05-01 10:37 | 45.51806 | 9.28548 | 3349 ft | 237 kts | 8° |
| 2026-05-01 10:37 | 45.53459 | 9.28932 | 3878 ft | 251 kts | 26° |
| 2026-05-01 10:38 | 45.55026 | 9.30121 | 4655 ft | 259 kts | 30° |
| 2026-05-01 10:38 | 45.56594 | 9.31410 | 5581 ft | 262 kts | 39° |
| 2026-05-01 10:38 | 45.57643 | 9.33488 | 6481 ft | 262 kts | 69° |
| 2026-05-01 10:38 | 45.58204 | 9.36008 | 7081 ft | 271 kts | 72° |
| 2026-05-01 10:39 | 45.58723 | 9.38598 | 7953 ft | 271 kts | 73° |
| 2026-05-01 10:39 | 45.59239 | 9.41209 | 8765 ft | 276 kts | 73° |
| 2026-05-01 10:39 | 45.59772 | 9.43860 | 9634 ft | 279 kts | 72° |
| 2026-05-01 10:39 | 45.60310 | 9.46495 | 10471 ft | 282 kts | 72° |
| 2026-05-01 10:40 | 45.60883 | 9.49254 | 10900 ft | 300 kts | 72° |
| 2026-05-01 10:40 | 45.61508 | 9.52234 | 11095 ft | 326 kts | 72° |
| 2026-05-01 10:40 | 45.62184 | 9.55435 | 11282 ft | 349 kts | 71° |
| 2026-05-01 10:40 | 45.62908 | 9.58858 | 11610 ft | 370 kts | 71° |
| 2026-05-01 10:41 | 45.63668 | 9.62453 | 11997 ft | 382 kts | 72° |
| 2026-05-01 10:41 | 45.64443 | 9.66115 | 12588 ft | 388 kts | 72° |
| 2026-05-01 10:41 | 45.66015 | 9.73550 | 13975 ft | 394 kts | 71° |
| 2026-05-01 10:42 | 45.66811 | 9.77317 | 14572 ft | 397 kts | 72° |
| 2026-05-01 10:42 | 45.67600 | 9.81064 | 15144 ft | 400 kts | 72° |
| 2026-05-01 10:42 | 45.68405 | 9.84887 | 15762 ft | 403 kts | 72° |
| 2026-05-01 10:42 | 45.69214 | 9.88740 | 16354 ft | 406 kts | 72° |
| 2026-05-01 10:43 | 45.70027 | 9.92621 | 16935 ft | 409 kts | 72° |
| 2026-05-01 10:43 | 45.70846 | 9.96530 | 17536 ft | 411 kts | 72° |
| 2026-05-01 10:43 | 45.71669 | 10.00466 | 18069 ft | 415 kts | 72° |
| 2026-05-01 10:43 | 45.72497 | 10.04434 | 18624 ft | 417 kts | 72° |
| 2026-05-01 10:44 | 45.73328 | 10.08428 | 19078 ft | 420 kts | 71° |
| 2026-05-01 10:44 | 45.74161 | 10.12442 | 19565 ft | 423 kts | 71° |
| 2026-05-01 10:44 | 45.74993 | 10.16451 | 19974 ft | 427 kts | 71° |
| 2026-05-01 10:44 | 45.75838 | 10.20540 | 20411 ft | 430 kts | 71° |
| 2026-05-01 10:45 | 45.76687 | 10.24654 | 20929 ft | 431 kts | 71° |
| 2026-05-01 10:45 | 45.77536 | 10.28777 | 21387 ft | 433 kts | 71° |
| 2026-05-01 10:45 | 45.78390 | 10.32929 | 21754 ft | 437 kts | 71° |
| 2026-05-01 10:45 | 45.79251 | 10.37122 | 22200 ft | 440 kts | 71° |
| 2026-05-01 10:46 | 45.80158 | 10.41313 | 22635 ft | 441 kts | 67° |
| 2026-05-01 10:46 | 45.81414 | 10.45326 | 23035 ft | 441 kts | 58° |
| 2026-05-01 10:46 | 45.83016 | 10.49077 | 23440 ft | 442 kts | 56° |
| 2026-05-01 10:46 | 45.84661 | 10.52819 | 23802 ft | 445 kts | 55° |
| 2026-05-01 10:47 | 45.86295 | 10.56531 | 24160 ft | 446 kts | 56° |
| 2026-05-01 10:47 | 45.87947 | 10.60306 | 24494 ft | 448 kts | 56° |
| 2026-05-01 10:47 | 45.89598 | 10.64109 | 24824 ft | 450 kts | 56° |
| 2026-05-01 10:47 | 45.91251 | 10.67942 | 25107 ft | 452 kts | 56° |
| 2026-05-01 10:48 | 45.92902 | 10.71788 | 25408 ft | 454 kts | 56° |
| 2026-05-01 10:48 | 45.94557 | 10.75659 | 25719 ft | 455 kts | 56° |
| 2026-05-01 10:48 | 45.96213 | 10.79542 | 25998 ft | 457 kts | 56° |
| 2026-05-01 10:48 | 45.97855 | 10.83397 | 26266 ft | 459 kts | 56° |
| 2026-05-01 10:49 | 45.99517 | 10.87304 | 26637 ft | 458 kts | 56° |
| 2026-05-01 10:49 | 46.01174 | 10.91207 | 27076 ft | 456 kts | 56° |
| 2026-05-01 10:49 | 46.02819 | 10.95088 | 27505 ft | 454 kts | 56° |
| 2026-05-01 10:49 | 46.04460 | 10.98961 | 27915 ft | 453 kts | 56° |
| 2026-05-01 10:50 | 46.06098 | 11.02832 | 28317 ft | 452 kts | 56° |
| 2026-05-01 10:50 | 46.07728 | 11.06688 | 28764 ft | 450 kts | 56° |
| 2026-05-01 10:50 | 46.09352 | 11.10537 | 29197 ft | 449 kts | 56° |
| 2026-05-01 10:50 | 46.10969 | 11.14373 | 29616 ft | 447 kts | 56° |
| 2026-05-01 10:51 | 46.12508 | 11.18029 | 30015 ft | 446 kts | 56° |
| 2026-05-01 10:51 | 46.14161 | 11.21963 | 30455 ft | 444 kts | 56° |
| 2026-05-01 10:51 | 46.15762 | 11.25777 | 30781 ft | 444 kts | 56° |
| 2026-05-01 10:51 | 46.17356 | 11.29580 | 31095 ft | 443 kts | 56° |
| 2026-05-01 10:52 | 46.18948 | 11.33383 | 31427 ft | 442 kts | 56° |
| 2026-05-01 10:52 | 46.20536 | 11.37182 | 31720 ft | 442 kts | 56° |
| 2026-05-01 10:52 | 46.22123 | 11.40982 | 32019 ft | 442 kts | 56° |
| 2026-05-01 10:52 | 46.23705 | 11.44778 | 32334 ft | 440 kts | 56° |
| 2026-05-01 10:53 | 46.25281 | 11.48563 | 32677 ft | 439 kts | 56° |
| 2026-05-01 10:53 | 46.26852 | 11.52342 | 32995 ft | 439 kts | 56° |
| 2026-05-01 10:53 | 46.28403 | 11.56077 | 33281 ft | 439 kts | 56° |
| 2026-05-01 10:53 | 46.29969 | 11.59856 | 33624 ft | 437 kts | 56° |
| 2026-05-01 10:54 | 46.31528 | 11.63622 | 33982 ft | 435 kts | 56° |
| 2026-05-01 10:54 | 46.33076 | 11.67368 | 34309 ft | 434 kts | 56° |
| 2026-05-01 10:54 | 46.34624 | 11.71117 | 34476 ft | 435 kts | 56° |
| 2026-05-01 10:54 | 46.36178 | 11.74882 | 34620 ft | 437 kts | 56° |
| 2026-05-01 10:55 | 46.37739 | 11.78672 | 34831 ft | 438 kts | 56° |
| 2026-05-01 10:55 | 46.39295 | 11.82456 | 35048 ft | 438 kts | 56° |
| 2026-05-01 10:55 | 46.40856 | 11.86257 | 35193 ft | 439 kts | 56° |
| 2026-05-01 10:55 | 46.42416 | 11.90058 | 35365 ft | 440 kts | 56° |
| 2026-05-01 10:56 | 46.43954 | 11.93817 | 35569 ft | 440 kts | 56° |
| 2026-05-01 10:56 | 46.45514 | 11.97633 | 35773 ft | 440 kts | 56° |
| 2026-05-01 10:56 | 46.47076 | 12.01457 | 35949 ft | 441 kts | 56° |
| 2026-05-01 10:56 | 46.48638 | 12.05288 | 36128 ft | 442 kts | 56° |
| 2026-05-01 10:57 | 46.50202 | 12.09128 | 36325 ft | 442 kts | 56° |
| 2026-05-01 10:57 | 46.51763 | 12.12968 | 36550 ft | 442 kts | 56° |
| 2026-05-01 10:57 | 46.53325 | 12.16813 | 36770 ft | 441 kts | 56° |
| 2026-05-01 10:57 | 46.54882 | 12.20654 | 36981 ft | 441 kts | 56° |
| 2026-05-01 10:58 | 46.56438 | 12.24496 | 37129 ft | 442 kts | 56° |
| 2026-05-01 10:58 | 46.57978 | 12.28302 | 37277 ft | 442 kts | 57° |
| 2026-05-01 10:58 | 46.59533 | 12.32155 | 37351 ft | 443 kts | 57° |
| 2026-05-01 10:59 | 46.62651 | 12.39892 | 37378 ft | 443 kts | 57° |
| 2026-05-01 10:59 | 46.65765 | 12.47642 | 37367 ft | 444 kts | 57° |
| 2026-05-01 11:00 | 46.68883 | 12.55421 | 37344 ft | 446 kts | 57° |
| 2026-05-01 11:00 | 46.72174 | 12.63000 | 37338 ft | 444 kts | 50° |
| 2026-05-01 11:01 | 46.75943 | 12.70122 | 37338 ft | 444 kts | 49° |
| 2026-05-01 11:01 | 46.79745 | 12.77194 | 37329 ft | 441 kts | 49° |
| 2026-05-01 11:02 | 46.83476 | 12.84254 | 37325 ft | 437 kts | 50° |
| 2026-05-01 11:02 | 46.87124 | 12.91232 | 37321 ft | 433 kts | 50° |
| 2026-05-01 11:03 | 46.90765 | 12.98226 | 37353 ft | 434 kts | 50° |
| 2026-05-01 11:03 | 46.94445 | 13.05310 | 37338 ft | 438 kts | 50° |
| 2026-05-01 11:04 | 46.98126 | 13.12418 | 37353 ft | 438 kts | 50° |
| 2026-05-01 11:04 | 47.01785 | 13.19499 | 37353 ft | 439 kts | 50° |
| 2026-05-01 11:05 | 47.05453 | 13.26620 | 37370 ft | 436 kts | 50° |
| 2026-05-01 11:05 | 47.09108 | 13.33728 | 37326 ft | 436 kts | 50° |
| 2026-05-01 11:06 | 47.12744 | 13.40822 | 37344 ft | 435 kts | 50° |
| 2026-05-01 11:06 | 47.16353 | 13.47878 | 37357 ft | 435 kts | 50° |
| 2026-05-01 11:07 | 47.21795 | 13.58554 | 37345 ft | 435 kts | 50° |
| 2026-05-01 11:07 | 47.25403 | 13.65654 | 37355 ft | 432 kts | 50° |
| 2026-05-01 11:08 | 47.28513 | 13.73246 | 37374 ft | 435 kts | 61° |
| 2026-05-01 11:09 | 47.32381 | 13.85286 | 37366 ft | 435 kts | 61° |
| 2026-05-01 11:09 | 47.34967 | 13.93321 | 37386 ft | 434 kts | 61° |
| 2026-05-01 11:10 | 47.38876 | 14.05392 | 37387 ft | 434 kts | 61° |
| 2026-05-01 11:10 | 47.41475 | 14.13429 | 37381 ft | 434 kts | 61° |
| 2026-05-01 11:11 | 47.44045 | 14.21404 | 37393 ft | 432 kts | 61° |
| 2026-05-01 11:11 | 47.46619 | 14.29420 | 37377 ft | 431 kts | 61° |
| 2026-05-01 11:12 | 47.49179 | 14.37412 | 37369 ft | 430 kts | 61° |
| 2026-05-01 11:12 | 47.51733 | 14.45415 | 37372 ft | 430 kts | 62° |
| 2026-05-01 11:13 | 47.54277 | 14.53412 | 37373 ft | 430 kts | 62° |
| 2026-05-01 11:13 | 47.56794 | 14.61351 | 37375 ft | 429 kts | 62° |
| 2026-05-01 11:14 | 47.59331 | 14.69368 | 37372 ft | 430 kts | 62° |
| 2026-05-01 11:14 | 47.61856 | 14.77381 | 37369 ft | 429 kts | 62° |
| 2026-05-01 11:15 | 47.64375 | 14.85399 | 37405 ft | 429 kts | 62° |
| 2026-05-01 11:15 | 47.67001 | 14.93270 | 37390 ft | 427 kts | 55° |
| 2026-05-01 11:16 | 47.70670 | 15.00136 | 37396 ft | 425 kts | 46° |
| 2026-05-01 11:16 | 47.74600 | 15.06688 | 37405 ft | 425 kts | 46° |
| 2026-05-01 11:17 | 47.78520 | 15.13269 | 37392 ft | 425 kts | 46° |
| 2026-05-01 11:17 | 47.82384 | 15.19827 | 37404 ft | 425 kts | 47° |
| 2026-05-01 11:18 | 47.86266 | 15.26456 | 37402 ft | 424 kts | 47° |
| 2026-05-01 11:18 | 47.90131 | 15.33079 | 37404 ft | 424 kts | 47° |
| 2026-05-01 11:19 | 47.93991 | 15.39708 | 37401 ft | 423 kts | 47° |
| 2026-05-01 11:19 | 47.97846 | 15.46345 | 37414 ft | 423 kts | 47° |
| 2026-05-01 11:20 | 48.01670 | 15.52943 | 37397 ft | 423 kts | 47° |
| 2026-05-01 11:20 | 48.05515 | 15.59595 | 37419 ft | 423 kts | 47° |
| 2026-05-01 11:21 | 48.09355 | 15.66256 | 37395 ft | 423 kts | 47° |
| 2026-05-01 11:21 | 48.13185 | 15.72915 | 37404 ft | 422 kts | 47° |
| 2026-05-01 11:22 | 48.16976 | 15.79523 | 37402 ft | 421 kts | 47° |
| 2026-05-01 11:22 | 48.20789 | 15.86185 | 37398 ft | 420 kts | 47° |
| 2026-05-01 11:23 | 48.24587 | 15.92838 | 37405 ft | 419 kts | 47° |
| 2026-05-01 11:23 | 48.28373 | 15.99487 | 37398 ft | 419 kts | 47° |
| 2026-05-01 11:24 | 48.32152 | 16.06140 | 37398 ft | 418 kts | 47° |
| 2026-05-01 11:25 | 48.37776 | 16.16072 | 37401 ft | 417 kts | 47° |
| 2026-05-01 11:25 | 48.43404 | 16.26048 | 37398 ft | 416 kts | 47° |
| 2026-05-01 11:26 | 48.49021 | 16.36040 | 37396 ft | 416 kts | 47° |
| 2026-05-01 11:27 | 48.52734 | 16.42667 | 37398 ft | 417 kts | 47° |
| 2026-05-01 11:27 | 48.56469 | 16.49351 | 37388 ft | 417 kts | 47° |
| 2026-05-01 11:28 | 48.60200 | 16.56043 | 37389 ft | 417 kts | 48° |
| 2026-05-01 11:28 | 48.63929 | 16.62750 | 37382 ft | 416 kts | 48° |
| 2026-05-01 11:29 | 48.69509 | 16.72818 | 37381 ft | 416 kts | 48° |
| 2026-05-01 11:30 | 48.75027 | 16.82923 | 37373 ft | 417 kts | 49° |
| 2026-05-01 11:30 | 48.78612 | 16.89842 | 37374 ft | 417 kts | 50° |
| 2026-05-01 11:31 | 48.82178 | 16.96774 | 37371 ft | 417 kts | 50° |
| 2026-05-01 11:31 | 48.85748 | 17.03701 | 37371 ft | 417 kts | 50° |
| 2026-05-01 11:32 | 48.89259 | 17.10635 | 37368 ft | 417 kts | 51° |
| 2026-05-01 11:32 | 48.92655 | 17.17786 | 37380 ft | 417 kts | 52° |
| 2026-05-01 11:33 | 48.96029 | 17.24959 | 37374 ft | 417 kts | 52° |
| 2026-05-01 11:33 | 48.99415 | 17.32127 | 37375 ft | 417 kts | 52° |
| 2026-05-01 11:34 | 49.02804 | 17.39290 | 37377 ft | 416 kts | 52° |
| 2026-05-01 11:34 | 49.06164 | 17.46402 | 37374 ft | 416 kts | 52° |
| 2026-05-01 11:35 | 49.09538 | 17.53560 | 37379 ft | 416 kts | 52° |
| 2026-05-01 11:35 | 49.12912 | 17.60738 | 37373 ft | 416 kts | 52° |
| 2026-05-01 11:36 | 49.16255 | 17.67869 | 37366 ft | 415 kts | 52° |
| 2026-05-01 11:36 | 49.19613 | 17.75051 | 37372 ft | 415 kts | 52° |
| 2026-05-01 11:37 | 49.22969 | 17.82250 | 37358 ft | 415 kts | 52° |
| 2026-05-01 11:37 | 49.26318 | 17.89452 | 37365 ft | 415 kts | 52° |
| 2026-05-01 11:38 | 49.29665 | 17.96669 | 37351 ft | 416 kts | 52° |
| 2026-05-01 11:38 | 49.32986 | 18.03849 | 37355 ft | 416 kts | 52° |
| 2026-05-01 11:39 | 49.36326 | 18.11091 | 37230 ft | 415 kts | 52° |
| 2026-05-01 11:39 | 49.39618 | 18.18250 | 37343 ft | 406 kts | 53° |
| 2026-05-01 11:40 | 49.42889 | 18.25378 | 36774 ft | 412 kts | 52° |
| 2026-05-01 11:40 | 49.44536 | 18.28975 | 36158 ft | 410 kts | 52° |
| 2026-05-01 11:40 | 49.46171 | 18.32551 | 35517 ft | 409 kts | 52° |
| 2026-05-01 11:40 | 49.47786 | 18.36087 | 34853 ft | 409 kts | 52° |
| 2026-05-01 11:41 | 49.49419 | 18.39669 | 34163 ft | 409 kts | 52° |
| 2026-05-01 11:41 | 49.51052 | 18.43255 | 33367 ft | 410 kts | 53° |
| 2026-05-01 11:41 | 49.52686 | 18.46846 | 32635 ft | 409 kts | 53° |
| 2026-05-01 11:41 | 49.54318 | 18.50439 | 31877 ft | 410 kts | 53° |
| 2026-05-01 11:42 | 49.55948 | 18.54033 | 31128 ft | 410 kts | 53° |
| 2026-05-01 11:42 | 49.57584 | 18.57644 | 30328 ft | 412 kts | 53° |
| 2026-05-01 11:42 | 49.59219 | 18.61259 | 29363 ft | 413 kts | 53° |
| 2026-05-01 11:42 | 49.60837 | 18.64841 | 28495 ft | 412 kts | 53° |
| 2026-05-01 11:43 | 49.62491 | 18.68527 | 27530 ft | 413 kts | 54° |
| 2026-05-01 11:43 | 49.63865 | 18.72399 | 26400 ft | 422 kts | 64° |
| 2026-05-01 11:43 | 49.65006 | 18.76567 | 25529 ft | 421 kts | 64° |
| 2026-05-01 11:44 | 49.67260 | 18.84822 | 24109 ft | 412 kts | 64° |
| 2026-05-01 11:44 | 49.68375 | 18.88875 | 23333 ft | 408 kts | 64° |
| 2026-05-01 11:44 | 49.69481 | 18.92880 | 22600 ft | 402 kts | 64° |
| 2026-05-01 11:44 | 49.70574 | 18.96827 | 21938 ft | 397 kts | 64° |
| 2026-05-01 11:45 | 49.71652 | 19.00722 | 21266 ft | 392 kts | 64° |
| 2026-05-01 11:45 | 49.72704 | 19.04522 | 20611 ft | 388 kts | 64° |
| 2026-05-01 11:45 | 49.73758 | 19.08334 | 19972 ft | 384 kts | 64° |
| 2026-05-01 11:45 | 49.74801 | 19.12111 | 19334 ft | 380 kts | 64° |
| 2026-05-01 11:46 | 49.75833 | 19.15856 | 18694 ft | 377 kts | 64° |
| 2026-05-01 11:46 | 49.76851 | 19.19563 | 18015 ft | 373 kts | 64° |
| 2026-05-01 11:46 | 49.77865 | 19.23258 | 17307 ft | 370 kts | 64° |
| 2026-05-01 11:46 | 49.78864 | 19.26900 | 16707 ft | 366 kts | 64° |
| 2026-05-01 11:47 | 49.79850 | 19.30499 | 16074 ft | 363 kts | 64° |
| 2026-05-01 11:47 | 49.80831 | 19.34090 | 15463 ft | 360 kts | 64° |
| 2026-05-01 11:47 | 49.81801 | 19.37642 | 14869 ft | 358 kts | 64° |
| 2026-05-01 11:47 | 49.82753 | 19.41134 | 14277 ft | 356 kts | 64° |
| 2026-05-01 11:48 | 49.83711 | 19.44654 | 13615 ft | 354 kts | 64° |
| 2026-05-01 11:48 | 49.84662 | 19.48153 | 12990 ft | 351 kts | 64° |
| 2026-05-01 11:48 | 49.85604 | 19.51627 | 12415 ft | 348 kts | 64° |
| 2026-05-01 11:48 | 49.85729 | 19.52089 | 12330 ft | 348 kts | 64° |
| 2026-05-01 11:49 | 49.86665 | 19.55543 | 11739 ft | 346 kts | 64° |
| 2026-05-01 11:49 | 49.87584 | 19.58944 | 11487 ft | 335 kts | 64° |
| 2026-05-01 11:49 | 49.88465 | 19.62215 | 11336 ft | 323 kts | 64° |
| 2026-05-01 11:49 | 49.89319 | 19.65387 | 11193 ft | 315 kts | 64° |
| 2026-05-01 11:50 | 49.90155 | 19.68491 | 11069 ft | 310 kts | 64° |
| 2026-05-01 11:50 | 49.90966 | 19.71506 | 10940 ft | 303 kts | 64° |
| 2026-05-01 11:50 | 49.91763 | 19.74473 | 10812 ft | 293 kts | 64° |
| 2026-05-01 11:50 | 49.92531 | 19.77341 | 10687 ft | 284 kts | 64° |
| 2026-05-01 11:51 | 49.93278 | 19.80128 | 10567 ft | 275 kts | 64° |
| 2026-05-01 11:51 | 49.94000 | 19.82828 | 10455 ft | 267 kts | 64° |
| 2026-05-01 11:51 | 49.94699 | 19.85445 | 10339 ft | 258 kts | 64° |
| 2026-05-01 11:51 | 49.95385 | 19.88008 | 10081 ft | 257 kts | 64° |
| 2026-05-01 11:52 | 49.96067 | 19.90562 | 9798 ft | 255 kts | 64° |
| 2026-05-01 11:52 | 49.96734 | 19.93064 | 9517 ft | 254 kts | 64° |
| 2026-05-01 11:52 | 49.97408 | 19.95590 | 9239 ft | 253 kts | 64° |
| 2026-05-01 11:52 | 49.98078 | 19.98110 | 8951 ft | 252 kts | 64° |
| 2026-05-01 11:53 | 49.98746 | 20.00624 | 8603 ft | 254 kts | 64° |
| 2026-05-01 11:53 | 49.99434 | 20.03213 | 8118 ft | 262 kts | 64° |
| 2026-05-01 11:53 | 50.00132 | 20.05843 | 7753 ft | 264 kts | 64° |
| 2026-05-01 11:53 | 50.00826 | 20.08472 | 7471 ft | 263 kts | 64° |
| 2026-05-01 11:54 | 50.01521 | 20.11097 | 7179 ft | 262 kts | 64° |
| 2026-05-01 11:54 | 50.02212 | 20.13719 | 6898 ft | 262 kts | 64° |
| 2026-05-01 11:54 | 50.02891 | 20.16292 | 6728 ft | 258 kts | 64° |
| 2026-05-01 11:54 | 50.03562 | 20.18844 | 6588 ft | 252 kts | 64° |
| 2026-05-01 11:55 | 50.04261 | 20.21281 | 6471 ft | 242 kts | 53° |
| 2026-05-01 11:55 | 50.05447 | 20.22993 | 6375 ft | 229 kts | 25° |
| 2026-05-01 11:55 | 50.06917 | 20.23707 | 6286 ft | 217 kts | 5° |
| 2026-05-01 11:55 | 50.08407 | 20.23575 | 6100 ft | 213 kts | 350° |
| 2026-05-01 11:56 | 50.09860 | 20.23122 | 5869 ft | 216 kts | 348° |
| 2026-05-01 11:56 | 50.11334 | 20.22515 | 5646 ft | 224 kts | 334° |
| 2026-05-01 11:56 | 50.12518 | 20.20980 | 5417 ft | 223 kts | 306° |
| 2026-05-01 11:56 | 50.13086 | 20.18810 | 5183 ft | 221 kts | 279° |
| 2026-05-01 11:57 | 50.13022 | 20.16450 | 4965 ft | 216 kts | 263° |
| 2026-05-01 11:57 | 50.12826 | 20.14915 | 4810 ft | 212 kts | 261° |
| 2026-05-01 11:57 | 50.12415 | 20.11997 | 4488 ft | 204 kts | 261° |
| 2026-05-01 11:57 | 50.12126 | 20.09881 | 4262 ft | 196 kts | 261° |
| 2026-05-01 11:58 | 50.11844 | 20.07830 | 4056 ft | 190 kts | 262° |
| 2026-05-01 11:58 | 50.11570 | 20.05861 | 3857 ft | 182 kts | 261° |
| 2026-05-01 11:58 | 50.11070 | 20.02084 | 3508 ft | 177 kts | 261° |
| 2026-05-01 11:59 | 50.10815 | 20.00225 | 3426 ft | 178 kts | 260° |
| 2026-05-01 11:59 | 50.10549 | 19.98338 | 3188 ft | 181 kts | 261° |
| 2026-05-01 11:59 | 50.10284 | 19.96442 | 2955 ft | 174 kts | 260° |
| 2026-05-01 12:00 | 50.09827 | 19.93077 | 2537 ft | 146 kts | 261° |
| 2026-05-01 12:00 | 50.09577 | 19.91563 | 2344 ft | 143 kts | 260° |
| 2026-05-01 12:00 | 50.09199 | 19.88510 | 1919 ft | 143 kts | 265° |
| 2026-05-01 12:01 | 50.08968 | 19.87029 | 1745 ft | 141 kts | 259° |
| 2026-05-01 12:01 | 50.08752 | 19.85534 | 1547 ft | 139 kts | 259° |
| 2026-05-01 12:01 | 50.08543 | 19.84050 | 1360 ft | 141 kts | 258° |
| 2026-05-01 12:01 | 50.08341 | 19.82575 | 1182 ft | 139 kts | 257° |
| 2026-05-01 12:02 | 50.08139 | 19.81102 | 994 ft | 140 kts | 259° |
| 2026-05-01 12:02 | 50.07926 | 19.79611 | 810 ft | 140 kts | 259° |
| 2026-05-01 12:02 | 50.07747 | 19.78295 | 799 ft | 104 kts | 258° |
| 2026-05-01 12:02 | 50.07632 | 19.77468 | 798 ft | 54 kts | 257° |
| 2026-05-01 12:03 | 50.07566 | 19.76989 | 801 ft | 29 kts | 258° |
| 2026-05-01 12:03 | 50.07449 | 19.76853 | 799 ft | 23 kts | 167° |
| 2026-05-01 12:03 | 50.07324 | 19.76905 | 799 ft | 11 kts | 144° |
| 2026-05-01 12:03 | 50.07315 | 19.77018 | 799 ft | 11 kts | 79° |
| 2026-05-01 12:04 | 50.07330 | 19.77133 | 799 ft | 11 kts | 78° |
| 2026-05-01 12:04 | 50.07347 | 19.77254 | 799 ft | 12 kts | 76° |
| 2026-05-01 12:04 | 50.07366 | 19.77388 | 799 ft | 13 kts | 78° |
| 2026-05-01 12:04 | 50.07386 | 19.77530 | 799 ft | 14 kts | 78° |
| 2026-05-01 12:05 | 50.07408 | 19.77685 | 799 ft | 15 kts | 78° |
| 2026-05-01 12:05 | 50.07456 | 19.78033 | 799 ft | 18 kts | 78° |
| 2026-05-01 12:05 | 50.07484 | 19.78232 | 799 ft | 21 kts | 77° |
| 2026-05-01 12:06 | 50.07518 | 19.78467 | 799 ft | 24 kts | 77° |
| 2026-05-01 12:06 | 50.07555 | 19.78738 | 799 ft | 27 kts | 78° |
| 2026-05-01 12:06 | 50.07596 | 19.79033 | 799 ft | 28 kts | 77° |
| 2026-05-01 12:06 | 50.07637 | 19.79332 | 799 ft | 29 kts | 78° |
| 2026-05-01 12:07 | 50.07680 | 19.79640 | 799 ft | 28 kts | 77° |
| 2026-05-01 12:07 | 50.07711 | 19.79853 | 799 ft | 14 kts | 77° |
| 2026-05-01 12:07 | 50.07731 | 19.79999 | 799 ft | 13 kts | 78° |
| 2026-05-01 12:07 | 50.07678 | 19.80080 | 799 ft | 7 kts | 166° |
| 2026-05-01 12:08 | 50.07633 | 19.80078 | 799 ft | 7 kts | 225° |
| 2026-05-01 12:08 | 50.07632 | 19.80033 | 799 ft | 3 kts | 316° |
| 2026-05-01 12:08 | 50.07661 | 19.80018 | 799 ft | 5 kts | 346° |
| 2026-05-01 12:08 | 50.07674 | 19.80013 | 799 ft | 0 kts | 347° |